createdAt,value
2023-01-09T00:01:38.324Z,2.99
2023-01-09T00:04:08.121Z,3.01
2023-01-09T00:06:36.170Z,3.03
2023-01-09T00:09:05.649Z,3.03
2023-01-09T00:11:34.239Z,3.00
2023-01-09T00:14:02.201Z,2.96
2023-01-09T00:16:30.224Z,2.88
2023-01-09T00:18:58.183Z,2.83
2023-01-09T00:21:26.136Z,2.83
2023-01-09T00:23:55.176Z,2.82
2023-01-09T00:26:24.656Z,2.82
2023-01-09T00:28:54.207Z,2.85
2023-01-09T00:31:22.802Z,2.83
2023-01-09T00:33:56.254Z,2.84
2023-01-09T00:36:24.257Z,2.81
2023-01-09T00:38:52.330Z,2.79
2023-01-09T00:41:23.216Z,2.75
2023-01-09T00:43:55.976Z,2.75
2023-01-09T00:46:30.342Z,2.75
2023-01-09T00:48:58.933Z,2.74
2023-01-09T00:51:27.870Z,2.70
2023-01-09T00:53:56.125Z,2.69
2023-01-09T00:56:25.823Z,2.68
2023-01-09T00:58:55.731Z,2.66
2023-01-09T01:01:23.924Z,2.67
2023-01-09T01:03:51.940Z,2.66
2023-01-09T01:06:39.601Z,2.61
2023-01-09T01:09:07.717Z,2.61
2023-01-09T01:11:36.006Z,2.61
2023-01-09T01:14:05.343Z,2.59
2023-01-09T01:16:33.959Z,2.61
2023-01-09T01:19:01.865Z,2.59
2023-01-09T01:21:29.873Z,2.55
2023-01-09T01:23:57.831Z,2.49
2023-01-09T01:26:25.691Z,2.41
2023-01-09T01:28:53.612Z,2.43
2023-01-09T01:31:22.883Z,2.45
2023-01-09T01:33:50.797Z,2.43
2023-01-09T01:36:18.749Z,2.41
2023-01-09T01:38:47.961Z,2.40
2023-01-09T01:41:29.385Z,2.41
2023-01-09T01:43:58.820Z,2.43
2023-01-09T01:46:29.040Z,2.46
2023-01-09T01:49:01.517Z,2.47
2023-01-09T01:51:34.161Z,2.50
2023-01-09T01:54:07.560Z,2.54
2023-01-09T01:56:39.061Z,2.52
2023-01-09T01:59:10.800Z,2.53
2023-01-09T02:01:44.052Z,2.52
2023-01-09T02:04:12.977Z,2.47
2023-01-09T02:06:42.255Z,2.48
2023-01-09T02:09:10.538Z,2.50
2023-01-09T02:11:38.385Z,2.48
2023-01-09T02:14:06.398Z,2.44
2023-01-09T02:16:48.287Z,2.43
2023-01-09T02:19:39.605Z,2.45
2023-01-09T02:22:15.314Z,2.46
2023-01-09T02:25:09.452Z,2.42
2023-01-09T02:28:11.006Z,2.39
2023-01-09T02:30:46.826Z,2.36
2023-01-09T02:33:40.551Z,2.30
2023-01-09T02:36:28.863Z,2.32
2023-01-09T02:39:07.179Z,2.31
2023-01-09T02:41:41.841Z,2.30
2023-01-09T02:44:17.835Z,2.22
2023-01-09T02:46:47.255Z,2.21
2023-01-09T02:49:17.819Z,2.23
2023-01-09T02:51:53.510Z,2.22
2023-01-09T02:54:36.056Z,2.21
2023-01-09T02:57:23.137Z,2.16
2023-01-09T03:00:04.983Z,2.16
2023-01-09T03:02:46.711Z,2.03
2023-01-09T03:05:22.812Z,2.02
2023-01-09T03:07:59.842Z,2.01
2023-01-09T03:10:33.381Z,1.97
2023-01-09T03:13:03.486Z,1.97
2023-01-09T03:15:35.776Z,1.97
2023-01-09T03:18:06.202Z,1.99
2023-01-09T03:20:34.618Z,2.00
2023-01-09T03:23:03.972Z,1.99
2023-01-09T03:25:32.998Z,2.01
2023-01-09T03:28:03.055Z,2.01
2023-01-09T03:30:32.690Z,2.02
2023-01-09T03:33:01.354Z,2.00
2023-01-09T03:35:30.805Z,1.99
2023-01-09T03:37:59.050Z,1.96
2023-01-09T03:40:27.188Z,1.94
2023-01-09T03:42:55.154Z,1.84
2023-01-09T03:45:23.168Z,1.76
2023-01-09T03:47:52.957Z,1.74
2023-01-09T03:50:21.101Z,1.74
2023-01-09T03:52:50.521Z,1.72
2023-01-09T03:55:18.666Z,1.71
2023-01-09T03:57:46.660Z,1.71
2023-01-09T04:00:15.468Z,1.70
2023-01-09T04:02:43.851Z,1.68
2023-01-09T04:05:11.907Z,1.65
2023-01-09T04:07:39.956Z,1.62
2023-01-09T04:10:11.035Z,1.60
2023-01-09T04:12:39.222Z,1.53
2023-01-09T04:15:08.343Z,1.50
2023-01-09T04:17:36.379Z,1.50
2023-01-09T04:20:05.041Z,1.50
2023-01-09T04:22:32.989Z,1.37
2023-01-09T04:25:00.930Z,1.27
2023-01-09T04:27:30.289Z,1.19
2023-01-09T04:29:58.240Z,1.17
2023-01-09T04:32:27.613Z,1.14
2023-01-09T04:34:55.552Z,1.09
2023-01-09T04:37:24.654Z,1.07
2023-01-09T04:39:54.906Z,1.07
2023-01-09T04:42:22.993Z,1.06
2023-01-09T04:44:54.089Z,1.08
2023-01-09T04:47:22.187Z,1.10
2023-01-09T04:49:50.166Z,1.07
2023-01-09T04:52:18.142Z,1.03
2023-01-09T04:54:46.149Z,0.93
2023-01-09T04:57:14.085Z,0.84
2023-01-09T04:59:42.014Z,0.79
2023-01-09T05:02:12.133Z,0.72
2023-01-09T05:04:40.173Z,0.69
2023-01-09T05:07:08.127Z,0.63
2023-01-09T05:09:36.224Z,0.57
2023-01-09T05:12:04.292Z,0.54
2023-01-09T05:14:32.319Z,0.55
2023-01-09T05:17:00.295Z,0.57
2023-01-09T05:19:29.591Z,0.60
2023-01-09T05:21:57.624Z,0.66
2023-01-09T05:24:25.528Z,0.70
2023-01-09T05:26:53.485Z,0.71
2023-01-09T05:29:21.519Z,0.73
2023-01-09T05:31:49.668Z,0.74
2023-01-09T05:34:17.615Z,0.74
2023-01-09T05:36:47.010Z,0.73
2023-01-09T05:39:15.078Z,0.74
2023-01-09T05:41:43.072Z,0.73
2023-01-09T05:44:10.983Z,0.73
2023-01-09T05:46:38.934Z,0.75
2023-01-09T05:49:06.936Z,0.77
2023-01-09T05:51:35.199Z,0.77
2023-01-09T05:54:05.764Z,0.79
2023-01-09T05:56:33.819Z,0.74
2023-01-09T05:59:01.962Z,0.69
2023-01-09T06:01:29.994Z,0.70
2023-01-09T06:03:57.913Z,0.72
2023-01-09T06:06:26.056Z,0.75
2023-01-09T06:08:54.048Z,0.80
2023-01-09T06:11:23.421Z,0.80
2023-01-09T06:13:51.373Z,0.81
2023-01-09T06:16:19.526Z,0.79
2023-01-09T06:18:47.555Z,0.80
2023-01-09T06:21:15.539Z,0.86
2023-01-09T06:23:43.423Z,0.90
2023-01-09T06:26:11.474Z,0.95
2023-01-09T06:28:40.820Z,0.96
2023-01-09T06:31:08.843Z,0.98
2023-01-09T06:33:36.781Z,0.92
2023-01-09T06:36:05.224Z,0.89
2023-01-09T06:38:33.199Z,0.89
2023-01-09T06:41:01.123Z,0.90
2023-01-09T06:43:29.086Z,0.95
2023-01-09T06:45:58.405Z,0.98
2023-01-09T06:48:26.512Z,1.05
2023-01-09T06:50:55.125Z,1.09
2023-01-09T06:53:23.055Z,1.08
2023-01-09T06:55:51.095Z,1.08
2023-01-09T06:58:19.427Z,1.08
2023-01-09T07:00:49.370Z,1.09
2023-01-09T07:03:19.941Z,1.16
2023-01-09T07:05:48.211Z,1.21
2023-01-09T07:08:16.642Z,1.28
2023-01-09T07:10:44.711Z,1.33
2023-01-09T07:13:12.856Z,1.38
2023-01-09T07:15:40.893Z,1.34
2023-01-09T07:18:08.945Z,1.30
2023-01-09T07:20:40.889Z,1.31
2023-01-09T07:23:09.231Z,1.26
2023-01-09T07:25:37.379Z,1.17
2023-01-09T07:28:05.699Z,1.04
2023-01-09T07:30:33.906Z,0.97
2023-01-09T07:33:03.912Z,0.94
2023-01-09T07:35:32.109Z,1.01
2023-01-09T07:38:01.492Z,1.08
2023-01-09T07:40:29.577Z,1.21
2023-01-09T07:42:57.640Z,1.28
2023-01-09T07:45:25.572Z,1.38
2023-01-09T07:47:53.491Z,1.35
2023-01-09T07:50:21.923Z,1.41
2023-01-09T07:52:49.870Z,1.50
2023-01-09T07:55:19.295Z,1.60
2023-01-09T07:57:50.189Z,1.59
2023-01-09T08:00:21.087Z,1.66
2023-01-09T08:02:53.144Z,1.68
2023-01-09T08:05:21.660Z,1.66
2023-01-09T08:07:50.629Z,1.71
2023-01-09T08:10:20.779Z,1.73
2023-01-09T08:12:49.288Z,1.85
2023-01-09T08:15:17.583Z,1.99
2023-01-09T08:17:46.891Z,2.08
2023-01-09T08:20:16.970Z,2.09
2023-01-09T08:22:49.627Z,2.17
2023-01-09T08:25:19.797Z,2.30
2023-01-09T08:27:48.191Z,2.13
2023-01-09T08:30:17.257Z,2.10
2023-01-09T08:32:49.448Z,2.15
2023-01-09T08:35:17.553Z,2.28
2023-01-09T08:37:46.148Z,2.35
2023-01-09T08:40:14.662Z,2.44
2023-01-09T08:43:01.456Z,2.58
2023-01-09T08:45:46.732Z,2.79
2023-01-09T08:48:14.685Z,2.98
2023-01-09T08:50:43.590Z,3.06
2023-01-09T08:53:12.815Z,3.11
2023-01-09T08:55:40.819Z,3.22
2023-01-09T08:58:10.206Z,3.24
2023-01-09T09:00:38.088Z,3.27
2023-01-09T09:03:06.331Z,3.31
2023-01-09T09:05:34.662Z,3.29
2023-01-09T09:08:03.616Z,3.38
2023-01-09T09:10:32.004Z,3.55
2023-01-09T09:13:00.877Z,3.69
2023-01-09T09:15:30.498Z,3.67
2023-01-09T09:18:00.753Z,3.59
2023-01-09T09:20:31.835Z,3.30
2023-01-09T09:23:00.024Z,3.33
2023-01-09T09:25:28.917Z,3.47
2023-01-09T09:27:57.129Z,3.64
2023-01-09T09:30:25.772Z,3.81
2023-01-09T09:32:55.072Z,4.02
2023-01-09T09:35:23.362Z,4.25
2023-01-09T09:37:55.538Z,4.52
2023-01-09T09:40:36.559Z,4.77
2023-01-09T09:43:57.280Z,4.93
2023-01-09T09:46:35.737Z,5.07
2023-01-09T09:49:11.618Z,5.02
2023-01-09T09:51:58.296Z,4.88
2023-01-09T09:54:32.765Z,4.80
2023-01-09T09:57:03.955Z,4.76
2023-01-09T09:59:36.930Z,4.60
2023-01-09T10:02:15.508Z,4.54
2023-01-09T10:04:52.985Z,4.45
2023-01-09T10:07:25.144Z,4.51
2023-01-09T10:09:57.551Z,4.60
2023-01-09T10:12:31.233Z,4.70
2023-01-09T10:15:02.044Z,4.82
2023-01-09T10:17:48.724Z,4.87
2023-01-09T10:20:41.663Z,4.87
2023-01-09T10:23:23.015Z,4.87
2023-01-09T10:25:57.795Z,4.92
2023-01-09T10:28:50.217Z,4.92
2023-01-09T10:31:27.986Z,4.82
2023-01-09T10:34:10.189Z,4.86
2023-01-09T10:36:56.331Z,4.93
2023-01-09T10:39:28.652Z,4.91
2023-01-09T10:42:03.179Z,4.86
2023-01-09T10:44:37.473Z,4.81
2023-01-09T10:47:12.434Z,4.90
2023-01-09T10:49:40.953Z,4.97
2023-01-09T10:52:18.214Z,5.04
2023-01-09T10:54:53.769Z,5.07
2023-01-09T10:57:38.397Z,5.07
2023-01-09T11:00:08.714Z,5.10
2023-01-09T11:02:37.154Z,5.16
2023-01-09T11:05:05.304Z,5.27
2023-01-09T11:07:38.838Z,5.41
2023-01-09T11:10:09.806Z,5.55
2023-01-09T11:12:38.054Z,5.66
2023-01-09T11:15:31.344Z,5.72
2023-01-09T11:18:18.858Z,5.73
2023-01-09T11:20:47.171Z,5.88
2023-01-09T11:23:31.726Z,6.05
2023-01-09T11:26:02.781Z,6.20
2023-01-09T11:28:31.289Z,6.33
2023-01-09T11:31:01.692Z,6.39
2023-01-09T11:33:32.202Z,6.46
2023-01-09T11:36:08.106Z,6.48
2023-01-09T11:38:50.538Z,6.47
2023-01-09T11:41:21.171Z,6.51
2023-01-09T11:43:51.956Z,6.40
2023-01-09T11:46:38.658Z,6.33
2023-01-09T11:49:22.620Z,6.36
2023-01-09T11:52:12.993Z,6.40
2023-01-09T11:54:46.391Z,6.41
2023-01-09T11:57:14.502Z,6.38
2023-01-09T11:59:42.595Z,6.36
2023-01-09T12:02:39.368Z,6.30
2023-01-09T12:05:21.325Z,6.26
2023-01-09T12:08:11.253Z,6.24
2023-01-09T12:10:56.250Z,6.21
2023-01-09T12:13:41.227Z,6.22
2023-01-09T12:16:16.217Z,6.26
2023-01-09T12:18:56.283Z,6.33
2023-01-09T12:21:41.399Z,6.39
2023-01-09T12:24:26.249Z,6.40
2023-01-09T12:27:10.659Z,6.39
2023-01-09T12:29:58.278Z,6.28
2023-01-09T12:32:41.315Z,6.23
2023-01-09T12:35:22.846Z,6.27
2023-01-09T12:38:15.275Z,6.28
2023-01-09T12:41:22.900Z,6.02
2023-01-09T12:44:09.951Z,5.98
2023-01-09T12:46:47.294Z,6.05
2023-01-09T12:49:29.057Z,6.16
2023-01-09T12:52:06.463Z,6.23
2023-01-09T12:54:42.244Z,6.23
2023-01-09T12:57:17.153Z,6.24
2023-01-09T12:59:52.632Z,6.30
2023-01-09T13:02:27.908Z,6.27
2023-01-09T13:05:01.691Z,6.32
2023-01-09T13:07:35.184Z,6.32
2023-01-09T13:10:10.183Z,6.35
2023-01-09T13:12:40.679Z,6.49
2023-01-09T13:15:28.905Z,6.57
2023-01-09T13:18:03.343Z,6.65
2023-01-09T13:20:38.922Z,6.70
2023-01-09T13:23:08.079Z,6.78
2023-01-09T13:25:44.762Z,6.79
2023-01-09T13:28:21.044Z,6.82
2023-01-09T13:31:03.550Z,6.85
2023-01-09T13:33:36.423Z,6.90
2023-01-09T13:36:05.843Z,6.90
2023-01-09T13:38:36.588Z,6.91
2023-01-09T13:41:30.399Z,6.88
2023-01-09T13:44:01.096Z,6.89
2023-01-09T13:46:38.415Z,6.89
2023-01-09T13:49:08.953Z,6.88
2023-01-09T13:51:56.814Z,6.86
2023-01-09T13:55:01.948Z,6.82
2023-01-09T13:57:32.150Z,6.81
2023-01-09T14:00:20.822Z,6.79
2023-01-09T14:02:57.562Z,6.75
2023-01-09T14:06:12.003Z,6.74
2023-01-09T14:08:45.008Z,6.73
2023-01-09T14:11:21.850Z,6.70
2023-01-09T14:14:03.657Z,6.70
2023-01-09T14:16:32.940Z,6.72
2023-01-09T14:19:08.061Z,6.73
2023-01-09T14:21:48.256Z,6.68
2023-01-09T14:24:26.559Z,6.65
2023-01-09T14:26:57.260Z,6.60
2023-01-09T14:29:47.512Z,6.51
2023-01-09T14:32:47.270Z,6.44
2023-01-09T14:35:26.489Z,6.37
2023-01-09T14:38:17.678Z,6.31
2023-01-09T14:40:50.125Z,6.30
2023-01-09T14:43:25.806Z,6.24
2023-01-09T14:45:57.864Z,6.20
2023-01-09T14:48:27.702Z,6.18
2023-01-09T14:51:00.028Z,6.16
2023-01-09T14:53:32.581Z,6.15
2023-01-09T14:56:06.023Z,6.13
2023-01-09T14:58:34.944Z,6.08
2023-01-09T15:01:05.408Z,6.03
2023-01-09T15:03:39.364Z,5.98
2023-01-09T15:06:14.697Z,5.79
2023-01-09T15:08:46.818Z,5.73
2023-01-09T15:11:15.694Z,5.70
2023-01-09T15:13:47.925Z,5.61
2023-01-09T15:16:19.849Z,5.49
2023-01-09T15:18:52.333Z,5.38
2023-01-09T15:21:25.651Z,5.25
2023-01-09T15:23:54.217Z,5.21
2023-01-09T15:26:27.777Z,5.06
2023-01-09T15:29:02.437Z,4.94
2023-01-09T15:31:30.869Z,4.96
2023-01-09T15:33:58.903Z,4.96
2023-01-09T15:36:31.005Z,4.98
2023-01-09T15:39:00.474Z,4.95
2023-01-09T15:41:47.826Z,4.94
2023-01-09T15:44:20.465Z,4.93
2023-01-09T15:46:50.957Z,4.95
2023-01-09T15:49:20.258Z,4.97
2023-01-09T15:51:51.525Z,4.97
2023-01-09T15:54:28.572Z,4.92
2023-01-09T15:56:56.481Z,4.88
2023-01-09T15:59:27.283Z,4.83
2023-01-09T16:02:16.011Z,4.76
2023-01-09T16:04:44.098Z,4.68
2023-01-09T16:07:16.956Z,4.61
2023-01-09T16:09:47.507Z,4.55
2023-01-09T16:12:21.150Z,4.49
2023-01-09T16:14:53.674Z,4.47
2023-01-09T16:17:26.572Z,4.50
2023-01-09T16:19:57.901Z,4.50
2023-01-09T16:22:29.167Z,4.48
2023-01-09T16:24:58.894Z,4.50
2023-01-09T16:27:28.780Z,4.45
2023-01-09T16:29:59.496Z,4.49
2023-01-09T16:32:30.145Z,4.51
2023-01-09T16:34:59.930Z,4.56
2023-01-09T16:37:30.036Z,4.55
2023-01-09T16:40:36.280Z,4.54
2023-01-09T16:43:05.426Z,4.63
2023-01-09T16:45:35.539Z,4.61
2023-01-09T16:48:04.769Z,4.60
2023-01-09T16:50:32.758Z,4.65
2023-01-09T16:53:08.313Z,4.73
2023-01-09T16:55:36.379Z,4.84
2023-01-09T16:58:04.405Z,4.92
2023-01-09T17:00:32.344Z,4.95
2023-01-09T17:03:00.818Z,4.99
2023-01-09T17:05:28.787Z,4.97
2023-01-09T17:07:57.137Z,4.95
2023-01-09T17:10:26.533Z,4.90
2023-01-09T17:12:54.482Z,4.89
2023-01-09T17:15:22.545Z,4.88
2023-01-09T17:17:50.477Z,4.90
2023-01-09T17:20:19.297Z,4.90
2023-01-09T17:22:47.299Z,4.92
2023-01-09T17:25:33.852Z,4.94
2023-01-09T17:28:21.875Z,4.98
2023-01-09T17:30:49.990Z,5.02
2023-01-09T17:33:19.851Z,5.03
2023-01-09T17:35:48.121Z,5.07
2023-01-09T17:38:16.467Z,5.10
2023-01-09T17:40:45.465Z,5.14
2023-01-09T17:43:14.884Z,5.17
2023-01-09T17:45:43.227Z,5.22
2023-01-09T17:48:22.204Z,5.25
2023-01-09T17:50:50.390Z,5.29
2023-01-09T17:53:20.732Z,5.29
2023-01-09T17:55:48.767Z,5.29
2023-01-09T17:58:27.151Z,5.33
2023-01-09T18:00:55.155Z,5.34
2023-01-09T18:03:26.119Z,5.34
2023-01-09T18:05:54.518Z,5.35
2023-01-09T18:08:24.016Z,5.38
2023-01-09T18:10:51.983Z,5.40
2023-01-09T18:13:20.478Z,5.35
2023-01-09T18:15:52.499Z,5.31
2023-01-09T18:18:22.503Z,5.33
2023-01-09T18:20:51.301Z,5.36
2023-01-09T18:23:19.715Z,5.36
2023-01-09T18:25:48.435Z,5.35
2023-01-09T18:28:17.082Z,5.41
2023-01-09T18:30:47.518Z,5.44
2023-01-09T18:33:17.709Z,5.42
2023-01-09T18:35:46.676Z,5.43
2023-01-09T18:38:15.587Z,5.44
2023-01-09T18:40:43.541Z,5.45
2023-01-09T18:43:12.194Z,5.45
2023-01-09T18:45:40.453Z,5.47
2023-01-09T18:48:09.629Z,5.47
2023-01-09T18:50:38.981Z,5.51
2023-01-09T18:53:07.457Z,5.56
2023-01-09T18:55:37.579Z,5.56
2023-01-09T18:58:05.958Z,5.54
2023-01-09T19:00:33.995Z,5.48
2023-01-09T19:03:01.867Z,5.37
2023-01-09T19:05:29.888Z,5.31
2023-01-09T19:07:59.241Z,5.17
2023-01-09T19:10:27.274Z,5.11
2023-01-09T19:12:55.251Z,5.04
2023-01-09T19:15:23.293Z,5.02
2023-01-09T19:17:51.817Z,4.98
2023-01-09T19:20:20.211Z,4.94
2023-01-09T19:22:48.255Z,4.87
2023-01-09T19:25:17.754Z,4.80
2023-01-09T19:27:45.648Z,4.73
2023-01-09T19:30:14.670Z,4.67
2023-01-09T19:32:42.662Z,4.62
2023-01-09T19:35:10.745Z,4.54
2023-01-09T19:37:38.791Z,4.48
2023-01-09T19:40:07.848Z,4.41
2023-01-09T19:42:37.427Z,4.34
2023-01-09T19:45:06.444Z,4.30
2023-01-09T19:47:36.191Z,4.26
2023-01-09T19:50:05.227Z,4.20
2023-01-09T19:52:33.291Z,4.14
2023-01-09T19:55:01.453Z,4.13
2023-01-09T19:57:29.453Z,4.11
2023-01-09T19:59:58.859Z,4.11
2023-01-09T20:02:28.206Z,4.16
2023-01-09T20:04:56.344Z,4.11
2023-01-09T20:07:24.382Z,4.11
2023-01-09T20:09:52.245Z,4.17
2023-01-09T20:12:20.253Z,4.20
2023-01-09T20:14:48.265Z,4.20
2023-01-09T20:17:17.953Z,4.21
2023-01-09T20:19:46.286Z,4.27
2023-01-09T20:22:14.420Z,4.33
2023-01-09T20:24:42.396Z,4.39
2023-01-09T20:27:10.291Z,4.45
2023-01-09T20:29:38.299Z,4.50
2023-01-09T20:32:07.735Z,4.54
2023-01-09T20:34:37.471Z,4.57
2023-01-09T20:37:05.412Z,4.62
2023-01-09T20:39:33.409Z,4.67
2023-01-09T20:42:01.507Z,4.72
2023-01-09T20:44:29.504Z,4.77
2023-01-09T20:46:57.702Z,4.82
2023-01-09T20:49:25.744Z,4.84
2023-01-09T20:51:55.225Z,4.87
2023-01-09T20:54:23.922Z,4.88
2023-01-09T20:56:51.901Z,4.89
2023-01-09T20:59:22.198Z,4.89
2023-01-09T21:01:50.621Z,4.90
2023-01-09T21:04:19.120Z,4.92
2023-01-09T21:06:49.631Z,4.90
2023-01-09T21:09:20.291Z,4.92
2023-01-09T21:11:48.226Z,4.92
2023-01-09T21:14:16.173Z,4.92
2023-01-09T21:16:53.522Z,4.92
2023-01-09T21:19:22.577Z,4.88
2023-01-09T21:21:53.076Z,4.92
2023-01-09T21:24:22.784Z,4.99
2023-01-09T21:26:50.795Z,5.06
2023-01-09T21:29:18.744Z,5.10
2023-01-09T21:31:46.815Z,5.12
2023-01-09T21:34:17.492Z,5.13
2023-01-09T21:36:48.696Z,5.15
2023-01-09T21:39:17.473Z,5.17
2023-01-09T21:42:04.302Z,5.19
2023-01-09T21:44:49.373Z,5.21
2023-01-09T21:47:17.341Z,5.24
2023-01-09T21:49:46.024Z,5.25
2023-01-09T21:52:15.034Z,5.27
2023-01-09T21:54:43.199Z,5.31
2023-01-09T21:57:13.011Z,5.34
2023-01-09T21:59:41.145Z,5.35
2023-01-09T22:02:12.449Z,5.35
2023-01-09T22:04:42.824Z,5.39
2023-01-09T22:07:11.289Z,5.43
2023-01-09T22:09:40.162Z,5.45
2023-01-09T22:12:08.569Z,5.48
2023-01-09T22:14:38.956Z,5.52
2023-01-09T22:17:07.535Z,5.52
2023-01-09T22:19:35.547Z,5.50
2023-01-09T22:22:07.274Z,5.52
2023-01-09T22:24:35.319Z,5.50
2023-01-09T22:27:03.260Z,5.56
2023-01-09T22:29:31.319Z,5.60
2023-01-09T22:32:00.710Z,5.60
2023-01-09T22:34:29.017Z,5.63
2023-01-09T22:36:56.943Z,5.66
2023-01-09T22:39:25.472Z,5.63
2023-01-09T22:41:55.260Z,5.62
2023-01-09T22:44:26.194Z,5.62
2023-01-09T22:46:54.128Z,5.57
2023-01-09T22:49:23.639Z,5.49
2023-01-09T22:51:52.135Z,5.43
2023-01-09T22:54:20.998Z,5.42
2023-01-09T22:56:50.604Z,5.39
2023-01-09T22:59:18.547Z,5.37
2023-01-09T23:01:46.552Z,5.35
2023-01-09T23:04:15.957Z,5.35
2023-01-09T23:06:45.384Z,5.36
2023-01-09T23:09:13.439Z,5.37
2023-01-09T23:11:59.226Z,5.35
2023-01-09T23:14:27.232Z,5.33
2023-01-09T23:16:56.083Z,5.28
2023-01-09T23:19:24.150Z,5.25
2023-01-09T23:21:53.504Z,5.26
2023-01-09T23:24:21.483Z,5.28
2023-01-09T23:26:49.941Z,5.28
2023-01-09T23:29:17.906Z,5.27
2023-01-09T23:31:46.366Z,5.29
2023-01-09T23:34:15.904Z,5.27
2023-01-09T23:36:43.921Z,5.34
2023-01-09T23:39:13.499Z,5.43
2023-01-09T23:41:59.476Z,5.49
2023-01-09T23:44:27.482Z,5.56
2023-01-09T23:46:55.723Z,5.60
2023-01-09T23:49:23.729Z,5.63
2023-01-09T23:51:51.668Z,5.66
2023-01-09T23:54:21.055Z,5.65
2023-01-09T23:56:49.062Z,5.66
2023-01-09T23:59:18.107Z,5.72
